Date,TemperatureHighF,TemperatureAvgF,TemperatureLowF,DewpointHighF,DewpointAvgF,DewpointLowF,HumidityHigh,HumidityAvg,HumidityLow,PressureMaxIn,PressureMinIn,WindSpeedMaxMPH,WindSpeedAvgMPH,GustSpeedMaxMPH,PrecipitationSumIn
2013-2-1,44,38,35,36,33,29,99,81,57,0.00,40.00,8,4,12,0.00
2013-2-2,44,37,28,32,28,26,93,71,51,0.00,40.00,8,4,12,0.00
2013-2-3,41,32,24,32,28,24,99,85,68,0.00,40.00,6,3,10,0.00
2013-2-4,42,39,37,33,31,29,81,73,63,0.00,40.00,11,4,18,0.00
2013-2-5,45,38,32,33,30,28,89,72,62,0.00,40.00,9,5,16,0.00
2013-2-6,42,37,32,33,30,27,88,75,60,0.00,40.00,13,5,20,0.00
2013-2-7,38,33,29,33,30,27,99,87,73,0.00,40.00,10,4,16,0.00
2013-2-8,40,33,28,32,30,27,100,89,69,0.00,40.00,6,3,10,0.00
2013-2-9,33,29,25,31,27,22,100,91,73,0.00,40.00,5,2,7,0.00
2013-2-10,36,28,25,28,26,25,100,94,67,0.00,40.00,6,2,9,0.00
2013-2-11,33,30,26,28,26,24,97,87,76,0.00,40.00,6,3,9,0.00
2013-2-12,38,35,33,33,30,27,90,82,72,0.00,40.00,14,6,22,0.00
2013-2-13,46,40,35,33,30,26,85,68,46,0.00,40.00,17,8,24,0.00
2013-2-14,41,33,26,29,26,23,96,74,50,0.00,40.00,6,3,10,0.00
2013-2-15,42,36,31,30,28,25,86,73,58,0.00,40.00,8,3,12,0.00
2013-2-16,39,33,29,35,30,27,98,89,68,0.00,40.00,5,3,11,0.00
2013-2-17,38,34,33,35,32,28,100,91,70,0.00,40.00,11,5,16,0.00
2013-2-18,39,31,24,31,27,22,100,85,50,0.00,40.00,5,3,9,0.00
2013-2-19,39,31,26,32,27,23,100,84,53,0.00,40.00,8,3,13,0.00
2013-2-20,36,33,30,33,29,23,100,87,70,0.00,40.00,11,4,16,0.00
2013-2-21,35,31,28,30,25,21,96,79,60,0.00,40.00,12,6,20,0.00
2013-2-22,38,34,31,33,29,26,98,83,62,0.00,40.00,13,8,19,0.00
2013-2-23,38,34,30,33,26,18,90,73,53,0.00,40.00,12,7,17,0.00
2013-2-24,38,33,28,28,24,20,90,70,49,0.00,40.00,10,5,17,0.00
2013-2-25,41,35,32,30,25,22,79,67,54,0.00,40.00,11,7,18,0.00
2013-2-26,38,34,32,30,26,20,94,73,49,0.00,40.00,11,5,15,0.00
2013-2-27,40,33,29,29,24,20,88,69,51,0.00,40.00,11,7,18,0.00
2013-2-28,42,35,30,32,30,26,98,83,63,0.00,40.00,11,4,16,0.00